sensor_id;sensor_type;location;lat;lon;timestamp;temperature;humidity
17728;DHT22;8984;49.268;12.302;2023-04-15T00:02:14;9.20;99.90
17728;DHT22;8984;49.268;12.302;2023-04-15T00:04:40;9.20;99.90
17728;DHT22;8984;49.268;12.302;2023-04-15T00:07:07;9.20;99.90
17728;DHT22;8984;49.268;12.302;2023-04-15T00:09:35;9.20;99.90
17728;DHT22;8984;49.268;12.302;2023-04-15T00:12:02;9.10;99.90
17728;DHT22;8984;49.268;12.302;2023-04-15T00:14:29;9.10;99.90
17728;DHT22;8984;49.268;12.302;2023-04-15T00:16:56;8.90;99.90
17728;DHT22;8984;49.268;12.302;2023-04-15T00:19:23;8.90;99.90
17728;DHT22;8984;49.268;12.302;2023-04-15T00:21:50;9.00;99.90
17728;DHT22;8984;49.268;12.302;2023-04-15T00:24:17;9.00;99.90
17728;DHT22;8984;49.268;12.302;2023-04-15T00:26:45;8.90;99.90
17728;DHT22;8984;49.268;12.302;2023-04-15T00:29:12;8.90;99.90
17728;DHT22;8984;49.268;12.302;2023-04-15T00:31:39;8.90;99.90
17728;DHT22;8984;49.268;12.302;2023-04-15T00:34:06;8.90;99.90
17728;DHT22;8984;49.268;12.302;2023-04-15T00:36:33;8.90;99.90
17728;DHT22;8984;49.268;12.302;2023-04-15T00:39:01;8.70;99.90
17728;DHT22;8984;49.268;12.302;2023-04-15T00:41:28;8.70;99.90
17728;DHT22;8984;49.268;12.302;2023-04-15T00:43:56;8.70;99.90
17728;DHT22;8984;49.268;12.302;2023-04-15T00:46:24;8.70;99.90
17728;DHT22;8984;49.268;12.302;2023-04-15T00:48:53;8.80;99.90
17728;DHT22;8984;49.268;12.302;2023-04-15T00:51:20;8.70;99.90
17728;DHT22;8984;49.268;12.302;2023-04-15T00:53:47;8.70;99.90
17728;DHT22;8984;49.268;12.302;2023-04-15T00:56:14;8.80;99.90
17728;DHT22;8984;49.268;12.302;2023-04-15T00:58:41;8.80;99.90
17728;DHT22;8984;49.268;12.302;2023-04-15T01:01:09;8.80;99.90
17728;DHT22;8984;49.268;12.302;2023-04-15T01:03:36;8.60;99.90
17728;DHT22;8984;49.268;12.302;2023-04-15T01:06:03;8.70;99.90
17728;DHT22;8984;49.268;12.302;2023-04-15T01:08:30;8.60;99.90
17728;DHT22;8984;49.268;12.302;2023-04-15T01:10:57;8.60;99.90
17728;DHT22;8984;49.268;12.302;2023-04-15T01:13:26;8.60;99.90
17728;DHT22;8984;49.268;12.302;2023-04-15T01:15:52;8.50;99.90
17728;DHT22;8984;49.268;12.302;2023-04-15T01:18:20;8.60;99.90
17728;DHT22;8984;49.268;12.302;2023-04-15T01:20:47;8.60;99.90
17728;DHT22;8984;49.268;12.302;2023-04-15T01:23:14;8.60;99.90
17728;DHT22;8984;49.268;12.302;2023-04-15T01:25:43;8.60;99.90
17728;DHT22;8984;49.268;12.302;2023-04-15T01:28:11;8.70;99.90
17728;DHT22;8984;49.268;12.302;2023-04-15T01:30:38;8.60;99.90
17728;DHT22;8984;49.268;12.302;2023-04-15T01:33:04;8.50;99.90
17728;DHT22;8984;49.268;12.302;2023-04-15T01:35:31;8.50;99.90
17728;DHT22;8984;49.268;12.302;2023-04-15T01:38:04;8.60;99.90
17728;DHT22;8984;49.268;12.302;2023-04-15T01:40:32;8.60;99.90
17728;DHT22;8984;49.268;12.302;2023-04-15T01:43:00;8.60;99.90
17728;DHT22;8984;49.268;12.302;2023-04-15T01:45:28;8.50;99.90
17728;DHT22;8984;49.268;12.302;2023-04-15T01:47:55;8.50;99.90
17728;DHT22;8984;49.268;12.302;2023-04-15T01:50:22;8.60;99.90
17728;DHT22;8984;49.268;12.302;2023-04-15T01:52:50;8.60;99.90
17728;DHT22;8984;49.268;12.302;2023-04-15T01:55:17;8.70;99.90
17728;DHT22;8984;49.268;12.302;2023-04-15T01:57:44;8.70;99.90
17728;DHT22;8984;49.268;12.302;2023-04-15T02:00:13;8.60;99.90
17728;DHT22;8984;49.268;12.302;2023-04-15T02:02:39;8.60;99.90
17728;DHT22;8984;49.268;12.302;2023-04-15T02:05:07;8.70;99.90
17728;DHT22;8984;49.268;12.302;2023-04-15T02:07:34;8.70;99.90
17728;DHT22;8984;49.268;12.302;2023-04-15T02:10:01;8.70;99.90
17728;DHT22;8984;49.268;12.302;2023-04-15T02:12:28;8.70;99.90
17728;DHT22;8984;49.268;12.302;2023-04-15T02:14:55;8.70;99.90
17728;DHT22;8984;49.268;12.302;2023-04-15T02:17:23;8.70;99.90
17728;DHT22;8984;49.268;12.302;2023-04-15T02:19:50;8.70;99.90
17728;DHT22;8984;49.268;12.302;2023-04-15T02:22:17;8.90;99.90
17728;DHT22;8984;49.268;12.302;2023-04-15T02:24:44;8.80;99.90
17728;DHT22;8984;49.268;12.302;2023-04-15T02:27:15;8.80;99.90
17728;DHT22;8984;49.268;12.302;2023-04-15T02:29:43;8.60;99.90
17728;DHT22;8984;49.268;12.302;2023-04-15T02:32:10;8.60;99.90
17728;DHT22;8984;49.268;12.302;2023-04-15T02:34:38;8.60;99.90
17728;DHT22;8984;49.268;12.302;2023-04-15T02:37:07;8.70;99.90
17728;DHT22;8984;49.268;12.302;2023-04-15T02:39:34;8.60;99.90
17728;DHT22;8984;49.268;12.302;2023-04-15T02:42:00;8.30;99.90
17728;DHT22;8984;49.268;12.302;2023-04-15T02:44:27;8.50;99.90
17728;DHT22;8984;49.268;12.302;2023-04-15T02:46:59;8.70;99.90
17728;DHT22;8984;49.268;12.302;2023-04-15T02:49:26;8.70;99.90
17728;DHT22;8984;49.268;12.302;2023-04-15T02:51:55;8.70;99.90
17728;DHT22;8984;49.268;12.302;2023-04-15T02:54:25;8.70;99.90
17728;DHT22;8984;49.268;12.302;2023-04-15T02:56:53;8.60;99.90
17728;DHT22;8984;49.268;12.302;2023-04-15T02:59:21;8.60;99.90
17728;DHT22;8984;49.268;12.302;2023-04-15T03:01:48;8.50;99.90
17728;DHT22;8984;49.268;12.302;2023-04-15T03:04:15;8.40;99.90
17728;DHT22;8984;49.268;12.302;2023-04-15T03:06:41;8.50;99.90
17728;DHT22;8984;49.268;12.302;2023-04-15T03:09:09;8.60;99.90
17728;DHT22;8984;49.268;12.302;2023-04-15T03:11:37;8.50;99.90
17728;DHT22;8984;49.268;12.302;2023-04-15T03:14:06;8.50;99.90
17728;DHT22;8984;49.268;12.302;2023-04-15T03:16:32;8.60;99.90
17728;DHT22;8984;49.268;12.302;2023-04-15T03:18:59;8.60;99.90
17728;DHT22;8984;49.268;12.302;2023-04-15T03:21:26;8.50;99.90
17728;DHT22;8984;49.268;12.302;2023-04-15T03:23:53;8.50;99.90
17728;DHT22;8984;49.268;12.302;2023-04-15T03:26:26;8.60;99.90
17728;DHT22;8984;49.268;12.302;2023-04-15T03:28:53;8.70;99.90
17728;DHT22;8984;49.268;12.302;2023-04-15T03:31:20;8.70;99.90
17728;DHT22;8984;49.268;12.302;2023-04-15T03:33:47;8.70;99.90
17728;DHT22;8984;49.268;12.302;2023-04-15T03:36:14;8.60;99.90
17728;DHT22;8984;49.268;12.302;2023-04-15T03:38:41;8.70;99.90
17728;DHT22;8984;49.268;12.302;2023-04-15T03:41:08;8.80;99.90
17728;DHT22;8984;49.268;12.302;2023-04-15T03:43:36;8.70;99.90
17728;DHT22;8984;49.268;12.302;2023-04-15T03:46:03;8.70;99.90
17728;DHT22;8984;49.268;12.302;2023-04-15T03:48:30;8.80;99.90
17728;DHT22;8984;49.268;12.302;2023-04-15T03:50:56;8.60;99.90
17728;DHT22;8984;49.268;12.302;2023-04-15T03:53:23;8.60;99.90
17728;DHT22;8984;49.268;12.302;2023-04-15T03:55:50;8.60;99.90
17728;DHT22;8984;49.268;12.302;2023-04-15T03:58:17;8.50;99.90
17728;DHT22;8984;49.268;12.302;2023-04-15T04:00:45;8.50;99.90
17728;DHT22;8984;49.268;12.302;2023-04-15T04:03:11;8.50;99.90
17728;DHT22;8984;49.268;12.302;2023-04-15T04:05:39;8.40;99.90
17728;DHT22;8984;49.268;12.302;2023-04-15T04:08:06;8.50;99.90
17728;DHT22;8984;49.268;12.302;2023-04-15T04:10:33;8.60;99.90
17728;DHT22;8984;49.268;12.302;2023-04-15T04:12:59;8.60;99.90
17728;DHT22;8984;49.268;12.302;2023-04-15T04:15:27;8.60;99.90
17728;DHT22;8984;49.268;12.302;2023-04-15T04:17:55;8.50;99.90
17728;DHT22;8984;49.268;12.302;2023-04-15T04:20:22;8.50;99.90
17728;DHT22;8984;49.268;12.302;2023-04-15T04:22:49;8.50;99.90
17728;DHT22;8984;49.268;12.302;2023-04-15T04:25:16;8.60;99.90
17728;DHT22;8984;49.268;12.302;2023-04-15T04:27:43;8.70;99.90
17728;DHT22;8984;49.268;12.302;2023-04-15T04:30:10;8.70;99.90
17728;DHT22;8984;49.268;12.302;2023-04-15T04:32:37;8.70;99.90
17728;DHT22;8984;49.268;12.302;2023-04-15T04:35:06;8.70;99.90
17728;DHT22;8984;49.268;12.302;2023-04-15T04:37:33;8.70;99.90
17728;DHT22;8984;49.268;12.302;2023-04-15T04:40:00;8.60;99.90
17728;DHT22;8984;49.268;12.302;2023-04-15T04:42:26;8.60;99.90
17728;DHT22;8984;49.268;12.302;2023-04-15T04:44:53;8.60;99.90
17728;DHT22;8984;49.268;12.302;2023-04-15T04:47:20;8.60;99.90
17728;DHT22;8984;49.268;12.302;2023-04-15T04:49:47;8.50;99.90
17728;DHT22;8984;49.268;12.302;2023-04-15T04:52:15;8.60;99.90
17728;DHT22;8984;49.268;12.302;2023-04-15T04:54:41;8.60;99.90
17728;DHT22;8984;49.268;12.302;2023-04-15T04:57:08;8.50;99.90
17728;DHT22;8984;49.268;12.302;2023-04-15T04:59:37;8.30;99.90
17728;DHT22;8984;49.268;12.302;2023-04-15T05:02:04;8.50;99.90
17728;DHT22;8984;49.268;12.302;2023-04-15T05:04:31;8.40;99.90
17728;DHT22;8984;49.268;12.302;2023-04-15T05:06:58;8.40;99.90
17728;DHT22;8984;49.268;12.302;2023-04-15T05:09:27;8.50;99.90
17728;DHT22;8984;49.268;12.302;2023-04-15T05:11:56;8.60;99.90
17728;DHT22;8984;49.268;12.302;2023-04-15T05:14:23;8.60;99.90
17728;DHT22;8984;49.268;12.302;2023-04-15T05:16:50;8.60;99.90
17728;DHT22;8984;49.268;12.302;2023-04-15T05:19:16;8.60;99.90
17728;DHT22;8984;49.268;12.302;2023-04-15T05:21:43;8.70;99.90
17728;DHT22;8984;49.268;12.302;2023-04-15T05:24:10;8.60;99.90
17728;DHT22;8984;49.268;12.302;2023-04-15T05:26:38;8.50;99.90
17728;DHT22;8984;49.268;12.302;2023-04-15T05:29:05;8.50;99.90
17728;DHT22;8984;49.268;12.302;2023-04-15T05:31:32;8.40;99.90
17728;DHT22;8984;49.268;12.302;2023-04-15T05:33:59;8.40;99.90
17728;DHT22;8984;49.268;12.302;2023-04-15T05:36:26;8.20;99.90
17728;DHT22;8984;49.268;12.302;2023-04-15T05:38:53;8.30;99.90
17728;DHT22;8984;49.268;12.302;2023-04-15T05:41:19;8.20;99.90
17728;DHT22;8984;49.268;12.302;2023-04-15T05:43:49;8.20;99.90
17728;DHT22;8984;49.268;12.302;2023-04-15T05:46:15;8.20;99.90
17728;DHT22;8984;49.268;12.302;2023-04-15T05:48:42;8.20;99.90
17728;DHT22;8984;49.268;12.302;2023-04-15T05:51:09;8.10;99.90
17728;DHT22;8984;49.268;12.302;2023-04-15T05:53:36;8.00;99.90
17728;DHT22;8984;49.268;12.302;2023-04-15T05:56:03;8.00;99.90
17728;DHT22;8984;49.268;12.302;2023-04-15T05:58:30;8.00;99.90
17728;DHT22;8984;49.268;12.302;2023-04-15T06:00:58;8.00;99.90
17728;DHT22;8984;49.268;12.302;2023-04-15T06:03:25;7.90;99.90
17728;DHT22;8984;49.268;12.302;2023-04-15T06:05:52;8.10;99.90
17728;DHT22;8984;49.268;12.302;2023-04-15T06:08:19;8.00;99.90
17728;DHT22;8984;49.268;12.302;2023-04-15T06:10:46;8.10;99.90
17728;DHT22;8984;49.268;12.302;2023-04-15T06:13:13;8.10;99.90
17728;DHT22;8984;49.268;12.302;2023-04-15T06:15:39;8.20;99.90
17728;DHT22;8984;49.268;12.302;2023-04-15T06:18:08;8.20;99.90
17728;DHT22;8984;49.268;12.302;2023-04-15T06:20:34;8.20;99.90
17728;DHT22;8984;49.268;12.302;2023-04-15T06:23:01;8.30;99.90
17728;DHT22;8984;49.268;12.302;2023-04-15T06:25:28;8.20;99.90
17728;DHT22;8984;49.268;12.302;2023-04-15T06:27:54;8.20;99.90
17728;DHT22;8984;49.268;12.302;2023-04-15T06:30:21;8.20;99.90
17728;DHT22;8984;49.268;12.302;2023-04-15T06:32:48;8.20;99.90
17728;DHT22;8984;49.268;12.302;2023-04-15T06:35:16;8.30;99.90
17728;DHT22;8984;49.268;12.302;2023-04-15T06:37:43;8.30;99.90
17728;DHT22;8984;49.268;12.302;2023-04-15T06:40:10;8.40;99.90
17728;DHT22;8984;49.268;12.302;2023-04-15T06:42:37;8.40;99.90
17728;DHT22;8984;49.268;12.302;2023-04-15T06:45:05;8.30;99.90
17728;DHT22;8984;49.268;12.302;2023-04-15T06:47:33;8.30;99.90
17728;DHT22;8984;49.268;12.302;2023-04-15T06:49:59;8.50;99.90
17728;DHT22;8984;49.268;12.302;2023-04-15T06:52:28;8.30;99.90
17728;DHT22;8984;49.268;12.302;2023-04-15T06:54:54;8.40;99.90
17728;DHT22;8984;49.268;12.302;2023-04-15T06:57:21;8.40;99.90
17728;DHT22;8984;49.268;12.302;2023-04-15T06:59:48;8.50;99.90
17728;DHT22;8984;49.268;12.302;2023-04-15T07:02:17;8.50;99.90
17728;DHT22;8984;49.268;12.302;2023-04-15T07:04:44;8.60;99.90
17728;DHT22;8984;49.268;12.302;2023-04-15T07:07:11;8.50;99.90
17728;DHT22;8984;49.268;12.302;2023-04-15T07:09:39;8.50;99.90
17728;DHT22;8984;49.268;12.302;2023-04-15T07:12:06;8.40;99.90
17728;DHT22;8984;49.268;12.302;2023-04-15T07:14:32;8.50;99.90
17728;DHT22;8984;49.268;12.302;2023-04-15T07:16:59;8.60;99.90
17728;DHT22;8984;49.268;12.302;2023-04-15T07:19:26;8.60;99.90
17728;DHT22;8984;49.268;12.302;2023-04-15T07:21:53;8.50;99.90
17728;DHT22;8984;49.268;12.302;2023-04-15T07:24:20;8.50;99.90
17728;DHT22;8984;49.268;12.302;2023-04-15T07:26:52;8.40;99.90
17728;DHT22;8984;49.268;12.302;2023-04-15T07:29:19;8.50;99.90
17728;DHT22;8984;49.268;12.302;2023-04-15T07:31:46;8.50;99.90
17728;DHT22;8984;49.268;12.302;2023-04-15T07:34:13;8.40;99.90
17728;DHT22;8984;49.268;12.302;2023-04-15T07:36:40;8.30;99.90
17728;DHT22;8984;49.268;12.302;2023-04-15T07:39:07;8.30;99.90
17728;DHT22;8984;49.268;12.302;2023-04-15T07:41:34;8.20;99.90
17728;DHT22;8984;49.268;12.302;2023-04-15T07:44:02;8.00;99.90
17728;DHT22;8984;49.268;12.302;2023-04-15T07:46:29;8.00;99.90
17728;DHT22;8984;49.268;12.302;2023-04-15T07:48:56;8.10;99.90
17728;DHT22;8984;49.268;12.302;2023-04-15T07:51:23;8.20;99.90
17728;DHT22;8984;49.268;12.302;2023-04-15T07:53:50;8.10;99.90
17728;DHT22;8984;49.268;12.302;2023-04-15T07:56:17;8.20;99.90
17728;DHT22;8984;49.268;12.302;2023-04-15T07:58:44;8.00;99.90
17728;DHT22;8984;49.268;12.302;2023-04-15T08:01:12;8.00;99.90
17728;DHT22;8984;49.268;12.302;2023-04-15T08:03:39;8.00;99.90
17728;DHT22;8984;49.268;12.302;2023-04-15T08:06:06;8.10;99.90
17728;DHT22;8984;49.268;12.302;2023-04-15T08:08:34;8.10;99.90
17728;DHT22;8984;49.268;12.302;2023-04-15T08:11:01;8.20;99.90
17728;DHT22;8984;49.268;12.302;2023-04-15T08:13:27;8.00;99.90
17728;DHT22;8984;49.268;12.302;2023-04-15T08:16:15;8.00;99.90
17728;DHT22;8984;49.268;12.302;2023-04-15T08:18:43;8.00;99.90
17728;DHT22;8984;49.268;12.302;2023-04-15T08:21:10;8.00;99.90
17728;DHT22;8984;49.268;12.302;2023-04-15T08:23:37;8.00;99.90
17728;DHT22;8984;49.268;12.302;2023-04-15T08:26:04;8.20;99.90
17728;DHT22;8984;49.268;12.302;2023-04-15T08:28:31;8.20;99.90
17728;DHT22;8984;49.268;12.302;2023-04-15T08:30:58;8.30;99.90
17728;DHT22;8984;49.268;12.302;2023-04-15T08:33:26;8.50;99.90
17728;DHT22;8984;49.268;12.302;2023-04-15T08:35:54;8.40;99.90
17728;DHT22;8984;49.268;12.302;2023-04-15T08:38:21;8.60;99.90
17728;DHT22;8984;49.268;12.302;2023-04-15T08:40:48;8.60;99.90
17728;DHT22;8984;49.268;12.302;2023-04-15T08:43:19;8.60;99.90
17728;DHT22;8984;49.268;12.302;2023-04-15T08:45:47;8.70;99.90
17728;DHT22;8984;49.268;12.302;2023-04-15T08:48:16;8.80;99.90
17728;DHT22;8984;49.268;12.302;2023-04-15T08:50:45;8.70;99.90
17728;DHT22;8984;49.268;12.302;2023-04-15T08:53:13;8.70;99.90
17728;DHT22;8984;49.268;12.302;2023-04-15T08:55:43;8.50;99.90
17728;DHT22;8984;49.268;12.302;2023-04-15T08:58:10;8.60;99.90
17728;DHT22;8984;49.268;12.302;2023-04-15T09:00:38;8.70;99.90
17728;DHT22;8984;49.268;12.302;2023-04-15T09:03:05;8.80;99.90
17728;DHT22;8984;49.268;12.302;2023-04-15T09:05:33;8.80;99.90
17728;DHT22;8984;49.268;12.302;2023-04-15T09:08:01;8.90;99.90
17728;DHT22;8984;49.268;12.302;2023-04-15T09:10:29;8.80;99.90
17728;DHT22;8984;49.268;12.302;2023-04-15T09:12:56;8.70;99.90
17728;DHT22;8984;49.268;12.302;2023-04-15T09:15:24;8.80;99.90
17728;DHT22;8984;49.268;12.302;2023-04-15T09:17:52;8.70;99.90
17728;DHT22;8984;49.268;12.302;2023-04-15T09:20:19;8.80;99.90
17728;DHT22;8984;49.268;12.302;2023-04-15T09:22:47;8.90;99.90
17728;DHT22;8984;49.268;12.302;2023-04-15T09:25:28;8.90;99.90
17728;DHT22;8984;49.268;12.302;2023-04-15T09:27:56;8.70;99.90
17728;DHT22;8984;49.268;12.302;2023-04-15T09:30:24;8.90;99.90
17728;DHT22;8984;49.268;12.302;2023-04-15T09:32:52;8.90;99.90
17728;DHT22;8984;49.268;12.302;2023-04-15T09:35:19;9.20;99.90
17728;DHT22;8984;49.268;12.302;2023-04-15T09:37:47;9.10;99.90
17728;DHT22;8984;49.268;12.302;2023-04-15T09:40:14;9.10;99.90
17728;DHT22;8984;49.268;12.302;2023-04-15T09:42:57;9.20;99.90
17728;DHT22;8984;49.268;12.302;2023-04-15T09:45:25;9.10;99.90
17728;DHT22;8984;49.268;12.302;2023-04-15T09:47:52;9.00;99.90
17728;DHT22;8984;49.268;12.302;2023-04-15T09:50:19;8.80;99.90
17728;DHT22;8984;49.268;12.302;2023-04-15T09:52:46;8.90;99.90
17728;DHT22;8984;49.268;12.302;2023-04-15T09:55:14;8.90;99.90
17728;DHT22;8984;49.268;12.302;2023-04-15T09:57:41;8.80;99.90
17728;DHT22;8984;49.268;12.302;2023-04-15T10:00:12;8.90;99.90
17728;DHT22;8984;49.268;12.302;2023-04-15T10:02:40;8.80;99.90
17728;DHT22;8984;49.268;12.302;2023-04-15T10:05:10;9.00;99.90
17728;DHT22;8984;49.268;12.302;2023-04-15T10:07:37;9.20;99.90
17728;DHT22;8984;49.268;12.302;2023-04-15T10:10:06;9.20;99.90
17728;DHT22;8984;49.268;12.302;2023-04-15T10:12:36;9.10;99.90
17728;DHT22;8984;49.268;12.302;2023-04-15T10:15:04;9.30;99.90
17728;DHT22;8984;49.268;12.302;2023-04-15T10:17:33;9.10;99.90
17728;DHT22;8984;49.268;12.302;2023-04-15T10:20:02;9.00;99.90
17728;DHT22;8984;49.268;12.302;2023-04-15T10:22:31;9.10;99.90
17728;DHT22;8984;49.268;12.302;2023-04-15T10:24:58;9.20;99.90
17728;DHT22;8984;49.268;12.302;2023-04-15T10:27:26;9.20;99.90
17728;DHT22;8984;49.268;12.302;2023-04-15T10:29:53;9.30;99.90
17728;DHT22;8984;49.268;12.302;2023-04-15T10:32:21;9.40;99.90
17728;DHT22;8984;49.268;12.302;2023-04-15T10:34:51;9.50;99.90
17728;DHT22;8984;49.268;12.302;2023-04-15T10:37:32;9.50;99.90
17728;DHT22;8984;49.268;12.302;2023-04-15T10:39:59;9.50;99.90
17728;DHT22;8984;49.268;12.302;2023-04-15T10:42:33;9.40;99.90
17728;DHT22;8984;49.268;12.302;2023-04-15T10:45:00;9.40;99.90
17728;DHT22;8984;49.268;12.302;2023-04-15T10:47:26;9.30;99.90
17728;DHT22;8984;49.268;12.302;2023-04-15T10:49:58;9.40;99.90
17728;DHT22;8984;49.268;12.302;2023-04-15T10:52:27;9.40;99.90
17728;DHT22;8984;49.268;12.302;2023-04-15T10:55:01;9.20;99.90
17728;DHT22;8984;49.268;12.302;2023-04-15T10:57:34;9.20;99.90
17728;DHT22;8984;49.268;12.302;2023-04-15T11:00:09;9.00;99.90
17728;DHT22;8984;49.268;12.302;2023-04-15T11:02:41;9.20;99.90
17728;DHT22;8984;49.268;12.302;2023-04-15T11:05:11;9.30;99.90
17728;DHT22;8984;49.268;12.302;2023-04-15T11:07:41;9.40;99.90
17728;DHT22;8984;49.268;12.302;2023-04-15T11:13:18;9.30;99.90
17728;DHT22;8984;49.268;12.302;2023-04-15T11:15:48;9.40;99.90
17728;DHT22;8984;49.268;12.302;2023-04-15T11:18:17;9.00;99.90
17728;DHT22;8984;49.268;12.302;2023-04-15T11:20:47;8.90;99.90
17728;DHT22;8984;49.268;12.302;2023-04-15T11:23:16;9.10;99.90
17728;DHT22;8984;49.268;12.302;2023-04-15T11:25:43;9.20;99.90
17728;DHT22;8984;49.268;12.302;2023-04-15T11:28:11;9.30;99.90
17728;DHT22;8984;49.268;12.302;2023-04-15T11:30:39;9.40;99.90
17728;DHT22;8984;49.268;12.302;2023-04-15T11:33:08;9.50;99.90
17728;DHT22;8984;49.268;12.302;2023-04-15T11:35:36;9.50;99.90
17728;DHT22;8984;49.268;12.302;2023-04-15T11:38:08;9.60;99.90
17728;DHT22;8984;49.268;12.302;2023-04-15T11:40:37;9.70;99.90
17728;DHT22;8984;49.268;12.302;2023-04-15T11:43:05;9.70;99.90
17728;DHT22;8984;49.268;12.302;2023-04-15T11:45:32;9.90;99.90
17728;DHT22;8984;49.268;12.302;2023-04-15T11:48:07;10.00;99.90
17728;DHT22;8984;49.268;12.302;2023-04-15T11:50:35;10.10;99.90
17728;DHT22;8984;49.268;12.302;2023-04-15T11:53:03;10.00;99.90
17728;DHT22;8984;49.268;12.302;2023-04-15T11:55:40;10.20;99.90
17728;DHT22;8984;49.268;12.302;2023-04-15T11:58:09;10.30;99.90
17728;DHT22;8984;49.268;12.302;2023-04-15T12:00:37;10.10;99.90
17728;DHT22;8984;49.268;12.302;2023-04-15T12:03:18;10.00;99.90
17728;DHT22;8984;49.268;12.302;2023-04-15T12:06:11;10.00;99.90
17728;DHT22;8984;49.268;12.302;2023-04-15T12:08:52;10.10;99.90
17728;DHT22;8984;49.268;12.302;2023-04-15T12:11:27;10.10;99.90
17728;DHT22;8984;49.268;12.302;2023-04-15T12:13:56;10.10;99.90
17728;DHT22;8984;49.268;12.302;2023-04-15T12:16:24;10.10;99.90
17728;DHT22;8984;49.268;12.302;2023-04-15T12:18:52;9.90;99.90
17728;DHT22;8984;49.268;12.302;2023-04-15T12:21:21;10.00;99.90
17728;DHT22;8984;49.268;12.302;2023-04-15T12:23:48;9.90;99.90
17728;DHT22;8984;49.268;12.302;2023-04-15T12:26:16;9.80;99.90
17728;DHT22;8984;49.268;12.302;2023-04-15T12:28:44;9.80;99.90
17728;DHT22;8984;49.268;12.302;2023-04-15T12:31:11;10.00;99.90
17728;DHT22;8984;49.268;12.302;2023-04-15T12:33:38;9.90;99.90
17728;DHT22;8984;49.268;12.302;2023-04-15T12:36:05;9.90;99.90
17728;DHT22;8984;49.268;12.302;2023-04-15T12:38:32;9.90;99.90
17728;DHT22;8984;49.268;12.302;2023-04-15T12:40:59;10.00;99.90
17728;DHT22;8984;49.268;12.302;2023-04-15T12:43:26;10.10;99.90
17728;DHT22;8984;49.268;12.302;2023-04-15T12:45:54;10.10;99.90
17728;DHT22;8984;49.268;12.302;2023-04-15T12:48:21;10.10;99.90
17728;DHT22;8984;49.268;12.302;2023-04-15T12:50:48;9.90;99.90
17728;DHT22;8984;49.268;12.302;2023-04-15T12:53:14;10.00;99.90
17728;DHT22;8984;49.268;12.302;2023-04-15T12:55:41;9.80;99.90
17728;DHT22;8984;49.268;12.302;2023-04-15T12:58:08;10.00;99.90
17728;DHT22;8984;49.268;12.302;2023-04-15T13:00:36;10.00;99.90
17728;DHT22;8984;49.268;12.302;2023-04-15T13:03:04;10.10;99.90
17728;DHT22;8984;49.268;12.302;2023-04-15T13:05:31;10.10;99.90
17728;DHT22;8984;49.268;12.302;2023-04-15T13:07:57;10.10;99.90
17728;DHT22;8984;49.268;12.302;2023-04-15T13:10:24;10.10;99.90
17728;DHT22;8984;49.268;12.302;2023-04-15T13:12:52;10.20;99.90
17728;DHT22;8984;49.268;12.302;2023-04-15T13:15:21;10.30;99.90
17728;DHT22;8984;49.268;12.302;2023-04-15T13:17:48;10.30;99.90
17728;DHT22;8984;49.268;12.302;2023-04-15T13:20:16;10.40;99.90
17728;DHT22;8984;49.268;12.302;2023-04-15T13:22:43;10.40;99.90
17728;DHT22;8984;49.268;12.302;2023-04-15T13:25:10;10.20;99.90
17728;DHT22;8984;49.268;12.302;2023-04-15T13:27:37;10.30;99.90
17728;DHT22;8984;49.268;12.302;2023-04-15T13:30:05;10.40;99.90
17728;DHT22;8984;49.268;12.302;2023-04-15T13:32:32;10.40;99.90
17728;DHT22;8984;49.268;12.302;2023-04-15T13:34:59;10.40;99.90
17728;DHT22;8984;49.268;12.302;2023-04-15T13:37:27;10.40;99.90
17728;DHT22;8984;49.268;12.302;2023-04-15T13:39:54;10.50;99.90
17728;DHT22;8984;49.268;12.302;2023-04-15T13:42:22;10.50;99.90
17728;DHT22;8984;49.268;12.302;2023-04-15T13:44:49;10.70;99.90
17728;DHT22;8984;49.268;12.302;2023-04-15T13:47:16;10.70;99.90
17728;DHT22;8984;49.268;12.302;2023-04-15T13:49:43;10.70;99.90
17728;DHT22;8984;49.268;12.302;2023-04-15T13:52:10;10.60;99.90
17728;DHT22;8984;49.268;12.302;2023-04-15T13:54:38;10.50;99.90
17728;DHT22;8984;49.268;12.302;2023-04-15T13:57:05;10.70;99.90
17728;DHT22;8984;49.268;12.302;2023-04-15T13:59:32;10.70;99.90
17728;DHT22;8984;49.268;12.302;2023-04-15T14:01:59;10.80;99.90
17728;DHT22;8984;49.268;12.302;2023-04-15T14:04:26;10.60;99.90
17728;DHT22;8984;49.268;12.302;2023-04-15T14:06:53;10.60;99.90
17728;DHT22;8984;49.268;12.302;2023-04-15T14:09:20;10.60;99.90
17728;DHT22;8984;49.268;12.302;2023-04-15T14:11:49;10.70;99.90
17728;DHT22;8984;49.268;12.302;2023-04-15T14:14:16;10.70;99.90
17728;DHT22;8984;49.268;12.302;2023-04-15T14:16:43;10.70;99.90
17728;DHT22;8984;49.268;12.302;2023-04-15T14:19:10;10.60;99.90
17728;DHT22;8984;49.268;12.302;2023-04-15T14:21:37;10.50;99.90
17728;DHT22;8984;49.268;12.302;2023-04-15T14:24:04;10.60;99.90
17728;DHT22;8984;49.268;12.302;2023-04-15T14:26:31;10.40;99.90
17728;DHT22;8984;49.268;12.302;2023-04-15T14:28:59;10.50;99.90
17728;DHT22;8984;49.268;12.302;2023-04-15T14:31:26;10.60;99.90
17728;DHT22;8984;49.268;12.302;2023-04-15T14:33:53;10.70;99.90
17728;DHT22;8984;49.268;12.302;2023-04-15T14:36:19;10.80;99.90
17728;DHT22;8984;49.268;12.302;2023-04-15T14:38:46;10.90;99.90
17728;DHT22;8984;49.268;12.302;2023-04-15T14:41:13;11.00;99.90
17728;DHT22;8984;49.268;12.302;2023-04-15T14:43:40;10.90;99.90
17728;DHT22;8984;49.268;12.302;2023-04-15T14:46:09;10.90;99.90
17728;DHT22;8984;49.268;12.302;2023-04-15T14:48:36;11.00;99.90
17728;DHT22;8984;49.268;12.302;2023-04-15T14:51:03;11.00;99.90
17728;DHT22;8984;49.268;12.302;2023-04-15T14:53:31;10.90;99.90
17728;DHT22;8984;49.268;12.302;2023-04-15T14:55:58;10.90;99.90
17728;DHT22;8984;49.268;12.302;2023-04-15T14:58:25;10.90;99.90
17728;DHT22;8984;49.268;12.302;2023-04-15T15:00:52;10.80;99.90
17728;DHT22;8984;49.268;12.302;2023-04-15T15:03:20;10.80;99.90
17728;DHT22;8984;49.268;12.302;2023-04-15T15:05:47;10.70;99.90
17728;DHT22;8984;49.268;12.302;2023-04-15T15:08:13;10.70;99.90
17728;DHT22;8984;49.268;12.302;2023-04-15T15:10:40;10.70;99.90
17728;DHT22;8984;49.268;12.302;2023-04-15T15:13:08;10.80;99.90
17728;DHT22;8984;49.268;12.302;2023-04-15T15:15:36;10.80;99.90
17728;DHT22;8984;49.268;12.302;2023-04-15T15:18:03;10.90;99.90
17728;DHT22;8984;49.268;12.302;2023-04-15T15:20:32;10.80;99.90
17728;DHT22;8984;49.268;12.302;2023-04-15T15:22:59;10.80;99.90
17728;DHT22;8984;49.268;12.302;2023-04-15T15:25:26;10.80;99.90
17728;DHT22;8984;49.268;12.302;2023-04-15T15:27:53;10.70;99.90
17728;DHT22;8984;49.268;12.302;2023-04-15T15:30:20;10.80;99.90
17728;DHT22;8984;49.268;12.302;2023-04-15T15:32:47;10.90;99.90
17728;DHT22;8984;49.268;12.302;2023-04-15T15:35:14;11.00;99.90
17728;DHT22;8984;49.268;12.302;2023-04-15T15:37:42;11.00;99.90
17728;DHT22;8984;49.268;12.302;2023-04-15T15:40:10;11.00;99.90
17728;DHT22;8984;49.268;12.302;2023-04-15T15:42:37;11.10;99.90
17728;DHT22;8984;49.268;12.302;2023-04-15T15:45:04;11.10;99.90
17728;DHT22;8984;49.268;12.302;2023-04-15T15:47:31;11.10;99.90
17728;DHT22;8984;49.268;12.302;2023-04-15T15:49:59;11.10;99.90